Dauntless Aviation
Airports North America Virgin Islands, British
TUPA
NGD

Captain Auguste George Airport

Anegada, VIRGIN ISLANDS, BRITISH

Airport Info
Suggest Updated Information for this Airport

Location

Latitude / Longitude: 18°43'37"N / 64°19'46"W
  18°43.632'N / 64°19.782'W
  18.7272 / -64.3297
Satellite photo at:
Airport distance calculator
From:
Weather Reports

METAR

TUPJ
20.6nm S
TUPJ 180200Z 14009KT 10SM SCT019 28/23 A3010 RMK Q1019 VIS35KM

TAF

TUPJ
20.6nm S
TAF TUPJ 172300Z 1800/1824 11010KT 9999 SCT020 PROB40 TEMPO 1800/1824 SHRA
Safelog

 

Dauntless Aviation

© 2007-2019 Dauntless Aviation, all rights reserved
Information provided via PilotNav comes from a variety of official and unofficial data sources. As errors are possible, do not use PilotNav for primary flight planning purposes. Verify any information that you receive via PilotNav with current and canonical charts and other official documents. The material in this database is subject to database copyrights held by Dauntless Aviation and may not be copied without the express permission of Dauntless Aviation - licenses for use of part of all of this data are available for purchase; enquire via the Dauntless Aviation helpdesk. A number of mechanisms and markers exist in the database to protect against and identify infringement / copyright. Automated queries against this website are stictly prohibited, and all activity is logged and analyzed.